Weather observations for the past three days for
Central Kentucky Regional Airport
Imperial (Metric)
Date Time (edt) Wind (mph) Vis. (mi.) Weather Sky Cond. Temperature (ºF) Relative Humidity Wind Chill (°F) Heat Index (°F) Pressure Precipitation (in)
Air Dwpt 6 hour altimeter (in) sea level (mb) 1 hr 3 hr 6 hr
Max. Min.
10 10:35 SW 9 10.00 Partly Cloudy SCT120 69.8 50 50% 30.02 0.0
10 10:15 SW 12 10.00 Fair CLR 69.8 50 50% 30.01 0.0
10 09:55 SW 12 10.00 Fair CLR 68 50 53% 30.01 0.0
10 09:35 SW 10 G 16 10.00 Fair CLR 66.2 50 56% 30.01 0.0
10 09:15 SW 9 10.00 Fair CLR 64.4 50 60% 30 0.0
10 08:55 SW 10 10.00 Fair CLR 62.6 50 64% 30 0.0
10 08:35 SW 10 10.00 Fair CLR 60.8 50 68% 30 0.0
10 08:15 SW 9 10.00 Fair CLR 60.8 50 68% 30 0.0
10 07:55 SW 8 10.00 Partly Cloudy SCT070 59 50 72% 29.99 0.0
10 07:35 SW 9 10.00 Partly Cloudy SCT070 59 50 72% 29.98 0.0
10 07:15 S 8 10.00 Fair CLR 57.2 48.2 72% 29.97 0.0
10 06:55 S 10 10.00 Fair CLR 57.2 48.2 72% 29.96 0.0
10 06:35 SW 9 10.00 Fair CLR 57.2 46.4 67% 29.96 0.0
10 06:15 SW 9 10.00 Fair CLR 57.2 46.4 67% 29.95 0.0
10 05:55 S 9 10.00 Fair CLR 55.4 46.4 72% 29.95 0.0
10 05:35 S 9 10.00 Partly Cloudy SCT060 55.4 48.2 77% 29.95 0.0
10 05:15 SW 9 10.00 Partly Cloudy SCT060 55.4 48.2 77% 29.95 0.0
10 04:55 SW 9 10.00 Fair CLR 57.2 46.4 67% 29.94 0.0
10 04:35 S 9 10.00 Fair CLR 57.2 46.4 67% 29.93 0.0
10 04:15 S 8 10.00 Fair CLR 57.2 46.4 67% 29.92 0.0
10 03:55 S 8 10.00 Fair CLR 57.2 46.4 67% 29.92 0.0
10 03:35 S 7 10.00 Fair CLR 57.2 46.4 67% 29.92 0.0
10 03:15 S 8 10.00 Fair CLR 59 46.4 63% 29.92 0.0
10 02:55 S 8 10.00 Fair CLR 59 46.4 63% 29.92 0.0
10 02:35 SW 8 10.00 Fair CLR 59 46.4 63% 29.92 0.0
10 02:15 SW 9 10.00 Fair CLR 59 46.4 63% 29.92 0.0
10 01:55 SW 9 10.00 Fair CLR 59 46.4 63% 29.92 0.0
10 01:35 S 7 10.00 Fair CLR 59 46.4 63% 29.92 0.0
10 01:15 S 8 10.00 Fair CLR 59 48.2 68% 29.92 0.0
10 00:55 S 8 10.00 Fair CLR 59 48.2 68% 29.92 0.0
10 00:35 SW 7 10.00 Fair CLR 60.8 48.2 63% 29.92 0.0
10 00:15 SW 6 10.00 Fair CLR 60.8 48.2 63% 29.92 0.0
09 23:55 SW 7 10.00 Fair CLR 60.8 48.2 63% 29.93 0.0
09 23:35 SW 7 10.00 Fair CLR 60.8 50 68% 29.93 0.0
09 23:15 SW 8 10.00 Fair CLR 60.8 50 68% 29.93 0.0
09 22:55 S 9 10.00 Fair CLR 62.6 50 64% 29.92 0.0
09 22:35 S 10 10.00 Fair CLR 62.6 50 64% 29.92 0.0
09 22:15 S 9 10.00 Fair CLR 62.6 50 64% 29.91 0.0
09 21:55 S 8 10.00 Fair CLR 62.6 50 64% 29.9 0.0
09 21:35 S 7 10.00 Fair CLR 62.6 50 64% 29.89 0.0
09 21:15 S 7 10.00 Fair CLR 62.6 50 64% 29.88 0.0
09 20:55 S 5 10.00 Fair CLR 64.4 50 60% 29.87 0.0
09 20:35 S 6 10.00 Fair CLR 66.2 50 56% 29.88 0.0
09 20:15 S 6 10.00 Fair CLR 68 50 53% 29.87 0.0
09 19:55 S 7 10.00 Fair CLR 69.8 50 50% 29.87 0.0
09 19:35 S 8 10.00 Fair CLR 69.8 48.2 46% 29.87 0.0
09 19:15 SW 6 10.00 Fair CLR 71.6 46.4 41% 29.86 0.0
09 18:55 SW 8 10.00 Fair CLR 71.6 48.2 44% 29.86 0.0
09 18:35 SW 7 10.00 Fair CLR 71.6 48.2 44% 29.86 0.0
09 18:15 SW 8 10.00 Fair CLR 71.6 48.2 44% 29.86 0.0
09 17:55 SW 7 10.00 Fair CLR 71.6 48.2 44% 29.85 0.0
09 17:35 SW 9 10.00 Fair CLR 71.6 48.2 44% 29.86 0.0
09 17:15 W 5 10.00 Fair CLR 71.6 48.2 44% 29.86 0.0
09 16:55 W 8 10.00 Partly Cloudy SCT038 SCT043 71.6 50 47% 29.87 0.0
09 16:35 W 3 10.00 Partly Cloudy SCT036 SCT046 69.8 50 50% 29.87 0.0
09 16:15 SW 5 10.00 Partly Cloudy SCT034 SCT046 69.8 50 50% 29.87 0.0
09 15:55 W 6 10.00 Partly Cloudy SCT033 SCT041 SCT047 69.8 51.8 53% 29.88 0.0
09 15:35 SW 6 10.00 Mostly Cloudy SCT029 BKN042 BKN050 68 51.8 56% 29.88 0.0
09 15:15 W 6 10.00 Mostly Cloudy SCT027 BKN055 68 51.8 56% 29.88 0.0
09 14:55 SW 10 10.00 Mostly Cloudy SCT024 SCT035 BKN045 66.2 51.8 60% 29.88 0.0
09 14:35 W 7 10.00 Overcast BKN024 BKN031 OVC044 64.4 51.8 64% 29.88 0.0
09 14:15 SW 9 10.00 Mostly Cloudy SCT022 BKN040 BKN046 66.2 51.8 60% 29.88 0.0
09 13:55 SW 8 10.00 Overcast OVC022 64.4 51.8 64% 29.88 0.0
09 13:35 SW 8 10.00 Overcast BKN020 OVC043 64.4 51.8 64% 29.88 0.0
09 13:15 SW 13 G 17 10.00 Mostly Cloudy BKN020 BKN043 62.6 51.8 68% 29.87 0.0
09 12:55 SW 12 10.00 Partly Cloudy SCT016 SCT060 62.6 51.8 68% 29.88 0.0
09 12:35 SW 9 10.00 Mostly Cloudy BKN016 BKN060 60.8 51.8 72% 29.88 0.0
09 12:15 SW 10 10.00 Mostly Cloudy SCT016 BKN046 BKN060 60.8 51.8 72% 29.88 0.0
09 11:55 SW 9 10.00 Mostly Cloudy SCT016 SCT040 BKN048 59 50 72% 29.88 0.0
09 11:35 SW 9 10.00 Overcast SCT014 SCT018 OVC055 59 51.8 77% 29.88 0.0
09 11:15 SW 7 10.00 Overcast SCT018 BKN036 OVC055 55.4 51.8 88% 29.88 0.0
09 10:55 SW 7 10.00 Light Rain SCT025 BKN036 OVC050 55.4 50 82% 29.87 0.0
09 10:35 SW 7 10.00 Light Rain SCT025 SCT040 OVC060 55.4 50 82% 29.87 0.0
09 10:15 SW 7 10.00 Mostly Cloudy BKN060 BKN070 55.4 48.2 77% 29.87 0.0
09 09:55 SW 9 10.00 Light Drizzle SCT028 SCT037 BKN050 55.4 48.2 77% 29.86 0.0
09 09:35 SW 9 10.00 Light Rain SCT036 OVC045 55.4 46.4 72% 29.86 0.0
09 09:15 SW 8 10.00 Light Rain BKN036 BKN041 OVC055 55.4 46.4 72% 29.85 0.0
09 08:55 SW 7 10.00 Mostly Cloudy SCT040 BKN060 BKN065 55.4 44.6 67% 29.85 0.0
09 08:35 SW 9 10.00 Partly Cloudy SCT043 SCT100 57.2 44.6 63% 29.84 0.0
09 08:15 S 10 10.00 Mostly Cloudy SCT046 SCT060 BKN100 55.4 44.6 67% 29.83 0.0
09 07:55 S 9 10.00 Mostly Cloudy BKN050 BKN065 BKN100 55.4 44.6 67% 29.82 0.0
09 07:35 S 12 10.00 Fair CLR 55.4 44.6 67% 29.83 0.0
09 07:15 S 9 10.00 Fair CLR 55.4 44.6 67% 29.83 0.0
09 06:55 S 10 10.00 Fair CLR 55.4 44.6 67% 29.82 0.0
09 06:35 S 8 10.00 Fair CLR 55.4 44.6 67% 29.81 0.0
09 06:15 S 8 10.00 Partly Cloudy SCT110 55.4 44.6 67% 29.82 0.0
09 05:55 S 9 10.00 Fair CLR 55.4 42.8 63% 29.83 0.0
09 05:35 S 7 10.00 Fair CLR 55.4 42.8 63% 29.83 0.0
09 05:15 SW 7 10.00 Fair CLR 55.4 42.8 63% 29.84 0.0
09 04:55 S 9 10.00 Fair CLR 55.4 42.8 63% 29.84 0.0
09 04:35 S 6 10.00 Fair CLR 55.4 41 59% 29.84 0.0
09 04:15 S 5 10.00 Fair CLR 55.4 41 59% 29.84 0.0
09 03:55 S 6 10.00 Fair CLR 55.4 41 59% 29.85 0.0
09 03:35 S 6 10.00 Fair CLR 55.4 41 59% 29.84 0.0
09 03:15 S 7 10.00 Fair CLR 55.4 41 59% 29.85 0.0
09 02:55 S 7 10.00 Fair CLR 57.2 41 55% 29.85 0.0
09 02:35 S 9 10.00 Fair CLR 57.2 41 55% 29.86 0.0
09 02:15 S 9 10.00 Fair CLR 57.2 41 55% 29.86 0.0
09 01:55 S 8 10.00 Fair CLR 57.2 39.2 51% 29.86 0.0
09 01:35 S 10 10.00 Fair CLR 57.2 39.2 51% 29.86 0.0
09 01:15 S 8 10.00 Fair CLR 57.2 37.4 48% 29.85 0.0
09 00:55 S 8 10.00 Fair CLR 59 35.6 42% 29.85 0.0
09 00:35 S 8 10.00 Fair CLR 57.2 35.6 44% 29.86 0.0
09 00:15 S 7 10.00 Fair CLR 57.2 35.6 44% 29.87 0.0
08 23:55 S 8 10.00 Fair CLR 57.2 33.8 41% 29.87 0.0
08 23:35 S 5 10.00 Fair CLR 57.2 35.6 44% 29.87 0.0
08 23:15 S 6 10.00 Fair CLR 59 35.6 42% 29.88 0.0
08 22:55 S 6 10.00 Fair CLR 59 35.6 42% 29.88 0.0
08 22:35 S 6 10.00 Fair CLR 59 35.6 42% 29.88 0.0
08 22:15 S 5 10.00 Fair CLR 59 33.8 39% 29.88 0.0
08 21:55 S 6 10.00 Fair CLR 60.8 33.8 36% 29.88 0.0
08 21:35 S 6 10.00 Fair CLR 60.8 33.8 36% 29.88 0.0
08 21:15 S 6 10.00 Fair CLR 62.6 33.8 34% 29.88 0.0
08 20:55 S 5 10.00 Fair CLR 62.6 33.8 34% 29.88 0.0
08 20:35 SW 6 10.00 Fair CLR 64.4 33.8 32% 29.88 0.0
08 20:15 SW 5 10.00 Fair CLR 64.4 33.8 32% 29.89 0.0
08 19:55 SW 5 10.00 Fair CLR 66.2 33.8 30% 29.89 0.0
08 19:35 SW 8 10.00 Fair CLR 68 32 26% 29.89 0.0
08 18:55 SW 9 10.00 Fair CLR 69.8 32 25% 29.9 0.0
08 18:35 SW 8 10.00 Fair CLR 69.8 32 25% 29.9 0.0
08 18:15 SW 9 10.00 Fair CLR 69.8 32 25% 29.9 0.0
08 17:55 SW 10 10.00 Fair CLR 69.8 30.2 23% 29.89 0.0
08 17:35 SW 8 10.00 Fair CLR 71.6 32 23% 29.9 0.0
08 17:15 SW 8 10.00 Fair CLR 69.8 32 25% 29.91 0.0
08 16:55 SW 9 10.00 Fair CLR 69.8 32 25% 29.92 0.0
08 16:35 SW 8 10.00 Fair CLR 69.8 32 25% 29.91 0.0
08 16:15 SW 10 G 17 10.00 Fair CLR 69.8 32 25% 29.92 0.0
08 15:35 SW 8 10.00 Fair CLR 69.8 30.2 23% 29.93 0.0
08 15:15 SW 14 10.00 Fair CLR 69.8 32 25% 29.94 0.0
08 14:55 SW 8 G 20 10.00 Fair CLR 68 32 26% 29.95 0.0
08 14:35 SW 12 G 17 10.00 Fair CLR 68 32 26% 29.97 0.0
08 14:15 SW 12 G 16 10.00 Fair CLR 68 32 26% 29.98 0.0
08 13:35 S 8 10.00 Fair CLR 68 32 26% 30.01 0.0
08 13:15 SW 9 10.00 Fair CLR 68 32 26% 30.01 0.0
08 12:55 S 5 10.00 Fair CLR 66.2 33.8 30% 30.02 0.0
08 12:35 SW 6 10.00 Fair CLR 64.4 33.8 32% 30.03 0.0
08 12:15 S 5 10.00 Fair CLR 64.4 33.8 32% 30.04 0.0
08 11:55 SW 7 10.00 Fair CLR 62.6 33.8 34% 30.05 0.0
08 11:35 S 8 10.00 Fair CLR 62.6 33.8 34% 30.06 0.0
08 11:15 S 8 10.00 Fair CLR 60.8 33.8 36% 30.06 0.0
08 10:55 SW 10 10.00 Fair CLR 60.8 32 34% 30.07 0.0
08 10:35 SW 10 10.00 Fair CLR 59 32 36% 30.07 0.0
08 10:15 SW 8 10.00 Fair CLR 59 33.8 39% 30.07 0.0
08 09:35 SW 9 7.00 Fair CLR 55.4 33.8 44% 30.07 0.0
08 09:15 SW 9 10.00 Fair CLR 53.6 33.8 47% 30.06 0.0
08 08:55 SW 6 10.00 Fair CLR 51.8 35.6 54% 30.06 0.0
08 08:35 Calm 10.00 Fair CLR 50 35.6 58% 30.05 0.0
08 08:15 Calm 10.00 Fair CLR 46.4 35.6 66% 30.05 0.0
08 07:55 Calm 10.00 Fair CLR 44.6 35.6 71% 30.05 0.0
08 07:35 S 3 10.00 Fair CLR 42.8 33.8 71% 30.04 0.0
08 07:15 S 6 10.00 Fair CLR 39.2 33.8 81% 36 30.03 0.0
08 06:55 S 5 10.00 Fair CLR 37.4 35.6 93% 34 30.03 0.0
08 06:35 S 3 10.00 Fair CLR 35.6 33.8 93% 30.03 0.0
08 06:15 S 3 10.00 Fair CLR 37.4 33.8 87% 30.02 0.0
08 05:55 SE 5 10.00 Fair CLR 37.4 33.8 87% 34 30.03 0.0
08 05:35 S 6 10.00 Fair CLR 35.6 33.8 93% 31 30.02 0.0
08 05:15 S 5 10.00 Fair CLR 39.2 33.8 81% 36 30.03 0.0
08 04:55 S 5 10.00 Fair CLR 37.4 33.8 87% 34 30.03 0.0
08 04:35 SW 5 10.00 Fair CLR 37.4 33.8 87% 34 30.03 0.0
08 04:15 SW 3 10.00 Fair CLR 35.6 33.8 93% 30.03 0.0
08 03:55 NW 5 10.00 Fair CLR 37.4 33.8 87% 34 30.02 0.0
08 03:35 S 5 10.00 Fair CLR 37.4 35.6 93% 34 30.02 0.0
08 03:15 Calm 10.00 Fair CLR 39.2 33.8 81% 30.02 0.0
08 02:55 Calm 10.00 Fair CLR 39.2 33.8 81% 30.02 0.0
08 02:35 Calm 10.00 Fair CLR 39.2 33.8 81% 30.02 0.0
08 02:15 Calm 10.00 Fair CLR 41 33.8 76% 30.02 0.0
08 01:55 Calm 10.00 Fair CLR 41 35.6 81% 30.03 0.0
08 01:35 S 3 10.00 Fair CLR 42.8 33.8 71% 30.03 0.0
08 01:15 S 5 10.00 Fair CLR 42.8 33.8 71% 41 30.04 0.0
08 00:55 S 5 10.00 Fair CLR 42.8 33.8 71% 41 30.04 0.0
08 00:35 Calm 10.00 Fair CLR 42.8 33.8 71% 30.03 0.0
08 00:15 Calm 10.00 Fair CLR 44.6 33.8 66% 30.03 0.0
07 23:55 Calm 10.00 Fair CLR 44.6 32 61% 30.02 0.0
07 23:35 Calm 10.00 Fair CLR 44.6 32 61% 30.03 0.0
07 23:15 Calm 10.00 Fair CLR 46.4 32 57% 30.03 0.0
07 22:55 NW 3 10.00 Fair CLR 48.2 30.2 50% 30.03 0.0
07 22:35 W 3 10.00 Fair CLR 50 30.2 47% 30.03 0.0
07 22:15 NW 5 10.00 Fair CLR 50 30.2 47% 49 30.02 0.0
07 21:55 NW 3 10.00 Fair CLR 50 30.2 47% 30.01 0.0
07 21:35 NW 3 10.00 Fair CLR 51.8 32 47% 30 0.0
07 21:15 NW 3 10.00 Fair CLR 51.8 32 47% 30 0.0
07 20:55 NW 5 10.00 Fair CLR 51.8 30.2 44% 29.99 0.0
07 20:35 NW 3 10.00 Fair CLR 53.6 32 44% 29.98 0.0
07 20:15 NW 3 10.00 Fair CLR 57.2 30.2 36% 29.98 0.0
07 19:55 NW 3 10.00 Fair CLR 59 32 36% 29.98 0.0
07 19:35 NW 6 10.00 Fair CLR 60.8 30.2 31% 29.97 0.0
07 19:15 W 6 10.00 Fair CLR 60.8 28.4 29% 29.98 0.0
07 18:55 NW 5 10.00 Fair CLR 60.8 28.4 29% 29.97 0.0
07 18:35 NW 6 10.00 Fair CLR 60.8 28.4 29% 29.97 0.0
07 18:15 NW 9 G 16 10.00 Fair CLR 62.6 28.4 27% 29.98 0.0
07 17:55 NW 9 G 16 10.00 Fair CLR 62.6 30.2 30% 29.97 0.0
07 17:35 NW 7 10.00 Fair CLR 62.6 30.2 30% 29.97 0.0
07 17:15 N 5 10.00 Fair CLR 62.6 32 32% 29.96 0.0
07 16:55 W 8 10.00 Partly Cloudy SCT060 62.6 32 32% 29.96 0.0
07 16:35 NW 6 10.00 Partly Cloudy SCT060 62.6 32 32% 29.96 0.0
07 16:15 N 7 10.00 Fair CLR 62.6 32 32% 29.96 0.0
07 15:55 W 12 G 18 10.00 Fair CLR 62.6 32 32% 29.97 0.0
07 15:35 NW 8 10.00 Fair CLR 62.6 32 32% 29.97 0.0
07 15:15 NW 6 10.00 Fair CLR 62.6 32 32% 29.97 0.0
07 14:55 NW 8 10.00 Fair CLR 60.8 32 34% 29.97 0.0
07 14:35 NW 12 G 16 10.00 Fair CLR 60.8 32 34% 29.98 0.0
07 14:15 W 8 10.00 Partly Cloudy SCT055 60.8 33.8 36% 29.98 0.0
07 13:55 NW 6 10.00 Partly Cloudy SCT055 60.8 33.8 36% 29.98 0.0
07 13:35 NW 9 10.00 Partly Cloudy SCT055 60.8 33.8 36% 29.98 0.0
07 13:15 N 9 G 16 10.00 Fair CLR 59 32 36% 30 0.0
07 12:55 W 8 10.00 Partly Cloudy SCT050 59 32 36% 30 0.0
07 12:35 NW 9 10.00 Partly Cloudy SCT050 59 33.8 39% 30 0.0
07 12:15 NW 9 10.00 Partly Cloudy SCT050 59 33.8 39% 30.01 0.0
07 11:55 N 10 10.00 Fair CLR 59 33.8 39% 30.01 0.0
07 11:35 N 7 10.00 Partly Cloudy SCT046 59 33.8 39% 30.01 0.0
07 11:15 NW 6 10.00 Fair CLR 57.2 33.8 41% 30 0.0
07 10:55 NE 7 10.00 Fair CLR 57.2 35.6 44% 30 0.0
Date Time (edt) Wind (mph) Vis. (mi.) Weather Sky Cond. Air Dwpt Max. Min. Relative Humidity Wind Chill (°F) Heat Index (°F) altimeter (in) sea level (mb) 1 hr 3 hr 6 hr
6 hour
Temperature (ºF) Pressure Precipitation (in)